• Join FlightAware (Why Join?)
  • Login
  • US Flag 
07:15AM EDT


 

Airport Tracker/Info


-or-


 

Live Flight TrackerFlight Track Log ✈ SKW6492 ✈ 03-May-2013 ✈ KAUS - KDEN

Flight Track Log - Related Links

Times and Time Zones

All times are in EDT time to prevent confusion due to time zone crossing. See the SKW6492 flight status page for this flight to view local times or setup timezone preferences in your user account.

Time Position Orientation Groundspeed Altitude Reporting Facility
EDT Latitude Longitude Course Direction KTS MPH feet Rate Location/Type
04:56PM 30.2972 -97.7158 291° West 207 238 5,600  Level Houston Center
04:57PM 30.4318 -97.7120 291° West  Level FlightAware Approximate
04:57PM 30.3367 -97.7981 299° West 247 284 9,000  Level Houston Center
04:58PM 30.4719 -97.8225 293° West  Level FlightAware Approximate
04:58PM 30.3722 -97.8708 300° West 253 291 11,700  Level Houston Center
04:59PM 30.5112 -97.9334 291° West  Level FlightAware Approximate
04:59PM 30.4147 -97.9417 305° West 265 305 13,700  Level Houston Center
05:00PM 30.5485 -98.0453 291° West  Level FlightAware Approximate
05:00PM 30.4806 -98.0003 323° Northwest 293 337 15,900  Level Houston Center
05:01PM 30.5858 -98.1572 291° West  Level FlightAware Approximate
05:01PM 30.5486 -98.0583 324° Northwest 301 346 17,700  Level Houston Center
05:02PM 30.6389 -98.0853 346° North 326 375 19,300 1,740 Climbing Houston Center
05:03PM 30.7203 -98.1325 333° Northwest 321 369 21,300 1,740 Climbing Houston Center
05:04PM 30.7917 -98.2000 321° Northwest 326 375 22,900 1,680 Climbing Houston Center
05:05PM 30.8747 -98.2786 321° Northwest 327 376 24,800 1,440 Climbing Houston Center
05:06PM 30.9383 -98.3433 319° Northwest 328 377 25,800 1,140 Climbing Fort Worth Center
05:07PM 31.0108 -98.4142 320° Northwest 334 384 27,000 1,140 Climbing Fort Worth Center
05:08PM 31.0875 -98.4856 321° Northwest 341 392 28,100 1,020 Climbing Fort Worth Center
05:09PM 31.1622 -98.5592 320° Northwest 346 398 29,100 840 Climbing Fort Worth Center
05:10PM 31.2408 -98.6331 321° Northwest 351 404 29,900 720 Climbing Fort Worth Center
05:10PM 31.2531 -98.6453 319° Northwest 359 413 30,000 660 Climbing Houston Center
05:11PM 31.3328 -98.7242 320° Northwest 368 423 30,800 840 Climbing Houston Center
05:12PM 31.3978 -98.7908 319° Northwest 362 417 31,500 780 Climbing Fort Worth Center
05:13PM 31.4700 -98.8600 321° Northwest 367 422 32,200 780 Climbing Fort Worth Center
05:14PM 31.5528 -98.9369 322° Northwest 367 422 33,100 840 Climbing Fort Worth Center
05:15PM 31.6289 -99.0164 318° Northwest 372 428 33,900 720 Climbing Fort Worth Center
05:16PM 31.7114 -99.1008 319° Northwest 372 428 34,600 720 Climbing Fort Worth Center
05:17PM 31.7917 -99.1781 321° Northwest 367 422 35,400 1,020 Climbing Fort Worth Center
05:18PM 31.8719 -99.2531 322° Northwest 367 422 36,700 1,260 Climbing Fort Worth Center
05:19PM 31.9439 -99.3256 319° Northwest 360 414 38,000 600 Climbing Fort Worth Center
05:20PM 32.0161 -99.3956 321° Northwest 349 402 38,000  Level Fort Worth Center
05:21PM 32.0900 -99.4708 319° Northwest 349 402 38,000  Level Fort Worth Center
05:22PM 32.1681 -99.5486 320° Northwest 349 402 38,000  Level Fort Worth Center
05:23PM 32.2458 -99.6267 320° Northwest 360 414 38,000  Level Fort Worth Center
05:24PM 32.3239 -99.7047 320° Northwest 365 420 38,000  Level Fort Worth Center
05:25PM 32.3997 -99.7828 319° Northwest 365 420 38,000  Level Fort Worth Center
05:26PM 32.4733 -99.8561 320° Northwest 359 413 38,000  Level Fort Worth Center
05:27PM 32.5578 -99.9175 329° Northwest 359 413 38,000  Level Fort Worth Center
05:28PM 32.6486 -99.9744 332° Northwest 350 403 38,000  Level Fort Worth Center
05:29PM 32.7433 -100.0314 333° Northwest 363 418 38,000  Level Fort Worth Center
05:30PM 32.8281 -100.0783 335° Northwest 373 429 38,000  Level Fort Worth Center
05:31PM 32.9208 -100.1283 336° Northwest 367 422 38,000  Level Fort Worth Center
05:32PM 33.0028 -100.1953 326° Northwest 357 411 38,000  Level Fort Worth Center
05:33PM 33.0825 -100.2669 323° Northwest 357 411 38,000  Level Fort Worth Center
05:35PM 33.2278 -100.3360 323° Northwest  Level FlightAware Approximate
05:35PM 33.2422 -100.4089 323° Northwest 357 411 38,000  Level Fort Worth Center
05:36PM 33.3217 -100.4811 323° Northwest 363 418 38,000  Level Fort Worth Center
05:37PM 33.4036 -100.5511 325° Northwest 363 418 38,000  Level Fort Worth Center
05:38PM 33.4831 -100.6236 323° Northwest 363 418 38,000  Level Fort Worth Center
05:39PM 33.5686 -100.7067 321° Northwest 363 418 38,000  Level Fort Worth Center
05:40PM 33.6419 -100.7717 324° Northwest 363 418 38,000  Level Fort Worth Center
05:41PM 33.7275 -100.8500 323° Northwest 357 411 38,000  Level Fort Worth Center
05:42PM 33.8008 -100.9153 324° Northwest 366 421 38,000  Level Fort Worth Center
05:43PM 33.8800 -100.9911 322° Northwest 366 421 38,000  Level Fort Worth Center
05:44PM 33.9700 -101.0572 329° Northwest 366 421 38,000  Level Fort Worth Center
05:45PM 34.0728 -101.1067 338° Northwest 366 421 38,000  Level Fort Worth Center
05:47PM 34.3081 -101.2153 339° North 376 433 38,000  Level Albuquerque Center
05:49PM 34.4042 -101.2583 340° North 371 427 38,000  Level Albuquerque Center
05:50PM 34.5019 -101.3047 339° North 375 432 38,000  Level Albuquerque Center
05:51PM 34.6175 -101.3592 339° North 373 429 38,000  Level Albuquerque Center
05:52PM 34.7142 -101.4069 338° Northwest 375 432 38,000  Level Albuquerque Center
05:53PM 34.8108 -101.4522 339° North 373 429 38,000  Level Albuquerque Center
05:54PM 34.9072 -101.4975 339° North 372 428 38,000  Level Albuquerque Center
05:55PM 35.0147 -101.5483 339° North 375 432 38,000  Level Albuquerque Center
05:56PM 35.1125 -101.5942 339° North 375 432 38,000  Level Albuquerque Center
05:57PM 35.2086 -101.6403 339° North 369 425 38,000  Level Albuquerque Center
05:58PM 35.3044 -101.6864 339° North 368 423 38,000  Level Albuquerque Center
05:59PM 35.3997 -101.7319 339° North 366 421 38,000  Level Albuquerque Center
06:00PM 35.4964 -101.7783 339° North 368 423 38,000  Level Albuquerque Center
06:01PM 35.5856 -101.8214 339° North 364 419 38,000  Level Albuquerque Center
06:02PM 35.6997 -101.8769 338° Northwest 367 422 38,000  Level Albuquerque Center
06:03PM 35.7953 -101.9231 339° North 368 423 38,000  Level Albuquerque Center
06:04PM 35.8914 -101.9694 339° North 370 426 38,000  Level Albuquerque Center
06:05PM 35.9858 -102.0167 338° Northwest 369 425 38,000  Level Albuquerque Center
06:06PM 36.0811 -102.0633 338° Northwest 369 425 38,000  Level Albuquerque Center
06:07PM 36.1769 -102.1092 339° North 369 425 38,000  Level Albuquerque Center
06:08PM 36.2925 -102.1661 338° Northwest 372 428 38,000  Level Albuquerque Center
06:09PM 36.3878 -102.2133 338° Northwest 370 426 38,000  Level Albuquerque Center
06:10PM 36.4839 -102.2597 339° North 370 426 38,000  Level Albuquerque Center
06:11PM 36.5800 -102.3078 338° Northwest 371 427 38,000  Level Albuquerque Center
06:12PM 36.6753 -102.3542 339° North 369 425 38,000 -180 Level Albuquerque Center
06:13PM 36.7722 -102.4031 338° Northwest 374 430 37,700 -480 Descending Albuquerque Center
06:14PM 36.8853 -102.4594 338° Northwest 381 438 37,100 -540 Descending Albuquerque Center
06:15PM 36.9906 -102.5117 338° Northwest 385 443 36,600 -540 Descending Albuquerque Center
06:16PM 37.0922 -102.5642 338° Northwest 386 444 36,000 -300 Descending Albuquerque Center
06:17PM 37.1872 -102.6111 339° North 386 444 36,000  Level Albuquerque Center
06:18PM 37.2797 -102.6575 338° Northwest 377 434 36,000  Level Albuquerque Center
06:19PM 37.3875 -102.7122 338° Northwest 375 432 36,000  Level Albuquerque Center
06:20PM 37.4478 -102.7433 338° Northwest 373 429 36,000  Level Denver Center
06:21PM 37.5567 -102.7906 341° North 371 427 36,000  Level Denver Center
06:22PM 37.6528 -102.8203 346° North 370 426 36,000  Level Denver Center
06:23PM 37.7653 -102.8567 346° North 373 429 36,000  Level Denver Center
06:24PM 37.8619 -102.8864 346° North 374 430 36,000  Level Denver Center
06:25PM 37.9744 -102.9222 346° North 375 432 36,000  Level Denver Center
06:26PM 38.0686 -102.9519 346° North 374 430 36,000 -60 Level Denver Center
06:27PM 38.1492 -102.9781 346° North 375 432 35,900 -660 Descending Denver Center
06:28PM 38.2794 -103.0197 346° North 377 434 34,700 -1,380 Descending Denver Center
06:29PM 38.3944 -103.0569 346° North 380 437 33,100 -1,440 Descending Denver Center
06:30PM 38.4961 -103.0903 346° North 390 449 31,700 -1,500 Descending Denver Center
06:31PM 38.5858 -103.1694 325° Northwest 387 445 30,100 -840 Descending Denver Center
06:32PM 38.6603 -103.2714 313° West 388 447 30,000 -60 Descending Denver Center
06:34PM 38.7322 -103.3739 312° West 384 442 30,000 -480 Level Denver Center
06:35PM 38.8133 -103.4856 313° West 381 438 29,100 -1,560 Descending Denver Center
06:36PM 38.8858 -103.5878 312° West 364 419 26,800 -2,100 Descending Denver Center
06:37PM 38.9564 -103.6864 313° West 370 426 24,800 -1,980 Descending Denver Center
06:38PM 39.0253 -103.7858 312° West 369 425 22,800 -1,800 Descending Denver Center
06:39PM 39.0914 -103.8814 312° West 359 413 21,200 -1,380 Descending Denver Center
06:40PM 39.1642 -103.9867 312° West 339 390 19,700 -1,140 Descending Denver Center
06:41PM 39.2281 -104.0772 312° West 293 337 18,600 -1,140 Descending Denver Center
06:42PM 39.2714 -104.1647 303° West 295 339 17,400 -1,320 Descending Denver Center
06:43PM 39.2925 -104.2672 285° West 269 310 15,900 -1,320 Descending Denver Center
06:44PM 39.3142 -104.3581 287° West 264 304 14,700 -1,200 Descending Denver Center
06:45PM 39.3417 -104.4375 294° West 244 281 13,500 -1,380 Descending Denver Center
06:46PM 39.3736 -104.5175 297° West 235 270 11,900 -1,500 Descending Denver Center
06:47PM 39.4231 -104.5681 322° Northwest 232 267 10,400 -1,380 Descending Denver Center
06:48PM 39.4819 -104.6211 325° Northwest 241 277 9,100 -660 Descending Denver Center
06:49PM 39.5414 -104.6475 341° North 227 261 9,100 -60 Level Denver Center
06:50PM 39.6106 -104.6442 North 230 265 9,000 -240 Descending Denver Center
06:51PM 39.6744 -104.6436 360° North 230 265 8,700 -300 Descending Denver Center